Time;durP1;ratioP1;P1;durP2;ratioP2;P2;SDS_P1;SDS_P2;PMS_P1;PMS_P2;Temp;Humidity;BMP_temperature;BMP_pressure;BME280_temperature;BME280_humidity;BME280_pressure;Samples;Min_cycle;Max_cycle;Signal;HPM_P1;HPM_P2
2021/06/13 00:00:08;;;;;;;;;;;;;;;13.36;100.00;100044.94;5073257;28;20300;-79
2021/06/13 00:02:38;;;;;;;;;;;;;;;13.11;100.00;100049.22;5072996;28;19924;-79
2021/06/13 00:05:09;;;;;;;;;;;;;;;13.05;100.00;100050.91;5073158;28;20015;-79
2021/06/13 00:07:38;;;;;;;;;;;;;;;12.96;100.00;100064.59;5073099;28;19929;-79
2021/06/13 00:10:05;;;;;;;;;;;;;;;12.81;100.00;100058.31;5072954;28;19929;-79
2021/06/13 00:12:33;;;;;;;;;;;;;;;12.57;100.00;100060.13;5088151;28;20494;-79
2021/06/13 00:15:00;;;;;;;;;;;;;;;12.46;100.00;100059.41;5088579;28;19939;-79
2021/06/13 00:17:27;;;;;;;;;;;;;;;12.61;100.00;100071.31;5073176;28;19925;-79
2021/06/13 00:19:54;;;;;;;;;;;;;;;12.55;100.00;100056.16;5073057;28;19924;-79
2021/06/13 00:22:21;;;;;;;;;;;;;;;12.46;100.00;100059.41;5073065;28;20257;-79
2021/06/13 00:24:48;;;;;;;;;;;;;;;12.52;100.00;100069.00;5072612;28;19924;-79
2021/06/13 00:27:15;;;;;;;;;;;;;;;12.32;100.00;100070.75;5054999;28;20015;-79
2021/06/13 00:29:42;;;;;;;;;;;;;;;12.33;100.00;100072.31;5072802;28;20007;-79
2021/06/13 00:32:09;;;;;;;;;;;;;;;12.28;100.00;100069.16;5073054;28;19924;-79
2021/06/13 00:34:37;;;;;;;;;;;;;;;12.31;100.00;100063.50;5072827;28;19983;-79
2021/06/13 00:37:06;;;;;;;;;;;;;;;12.11;100.00;100070.88;5072854;28;19931;-79
2021/06/13 00:39:33;;;;;;;;;;;;;;;12.06;100.00;100074.09;5072484;28;19925;-79
2021/06/13 00:42:00;;;;;;;;;;;;;;;12.15;100.00;100071.66;5035127;28;19947;-79
2021/06/13 00:44:28;;;;;;;;;;;;;;;12.07;100.00;100075.69;5083546;28;19931;-79
2021/06/13 00:46:55;;;;;;;;;;;;;;;12.19;100.00;100078.00;5039935;28;20360;-79
2021/06/13 00:49:22;;;;;;;;;;;;;;;12.16;100.00;100066.84;5058593;28;19932;-79
2021/06/13 00:51:51;;;;;;;;;;;;;;;12.21;100.00;100070.00;5058466;28;20015;-79
2021/06/13 00:54:19;;;;;;;;;;;;;;;12.20;100.00;100068.41;5058357;28;19924;-79
2021/06/13 00:56:48;;;;;;;;;;;;;;;12.05;100.00;100075.31;5076333;28;20384;-79
2021/06/13 00:59:15;;;;;;;;;;;;;;;11.65;100.00;100072.31;5058625;28;20283;-79
2021/06/13 01:01:43;;;;;;;;;;;;;;;11.73;100.00;100071.88;5058466;28;20437;-79
2021/06/13 01:04:12;;;;;;;;;;;;;;;11.98;100.00;100072.53;5058643;28;20380;-79
2021/06/13 01:06:48;;;;;;;;;;;;;;;12.13;100.00;100076.06;5091819;28;20261;-79
2021/06/13 01:09:17;;;;;;;;;;;;;;;11.65;100.00;100073.13;5057942;28;19950;-79
2021/06/13 01:12:16;;;;;;;;;;;;;;;11.66;100.00;100071.91;5076103;28;20379;-79
2021/06/13 01:14:46;;;;;;;;;;;;;;;11.56;100.00;100066.31;5052355;28;19955;-79
2021/06/13 01:17:33;;;;;;;;;;;;;;;11.59;100.00;100071.91;5076129;28;19947;-79
2021/06/13 01:20:08;;;;;;;;;;;;;;;11.70;100.00;100075.50;5058181;28;19925;-79
2021/06/13 01:22:56;;;;;;;;;;;;;;;11.63;100.00;100077.53;5057893;28;20405;-79
2021/06/13 01:25:24;;;;;;;;;;;;;;;11.42;100.00;100077.59;5075534;28;20390;-79
2021/06/13 01:27:54;;;;;;;;;;;;;;;11.64;100.00;100076.31;5075653;28;19963;-79
2021/06/13 01:30:23;;;;;;;;;;;;;;;11.75;100.00;100079.88;5075719;28;19924;-79
2021/06/13 01:32:51;;;;;;;;;;;;;;;11.76;100.00;100073.88;5074203;28;19924;-79
2021/06/13 01:35:22;;;;;;;;;;;;;;;11.71;100.00;100063.09;5037871;28;19952;-79
2021/06/13 01:37:52;;;;;;;;;;;;;;;11.56;100.00;100064.31;5085469;28;19932;-79
2021/06/13 01:40:21;;;;;;;;;;;;;;;11.22;100.00;100073.66;5062364;28;19928;-78
2021/06/13 01:42:51;;;;;;;;;;;;;;;11.25;100.00;100076.44;5091487;28;19932;-79
2021/06/13 01:45:23;;;;;;;;;;;;;;;11.07;100.00;100072.09;5075383;28;20360;-79
2021/06/13 01:47:51;;;;;;;;;;;;;;;11.11;100.00;100065.28;5075397;28;20399;-79
2021/06/13 01:50:21;;;;;;;;;;;;;;;11.17;100.00;100066.47;5057437;28;19956;-79
2021/06/13 01:52:51;;;;;;;;;;;;;;;11.52;100.00;100071.16;5074869;28;19924;-79
2021/06/13 01:55:20;;;;;;;;;;;;;;;11.78;100.00;100079.88;5057002;28;19929;-79
2021/06/13 01:57:48;;;;;;;;;;;;;;;12.03;100.00;100066.53;5057437;28;19939;-79
2021/06/13 02:00:41;;;;;;;;;;;;;;;12.02;100.00;100080.94;5072005;28;20023;-79
2021/06/13 02:03:16;;;;;;;;;;;;;;;11.93;100.00;100075.78;5057216;28;19925;-79
2021/06/13 02:06:02;;;;;;;;;;;;;;;12.03;100.00;100080.53;5057008;28;19951;-79
2021/06/13 02:08:34;;;;;;;;;;;;;;;12.21;100.00;100081.22;5074823;28;20383;-79
2021/06/13 02:11:09;;;;;;;;;;;;;;;12.14;100.00;100075.66;5057045;28;19928;-79
2021/06/13 02:13:38;;;;;;;;;;;;;;;12.28;100.00;100074.78;5090485;28;19928;-79
2021/06/13 02:16:10;;;;;;;;;;;;;;;12.21;100.00;100081.22;5074401;28;19925;-79
2021/06/13 02:18:38;;;;;;;;;;;;;;;12.45;100.00;100080.25;5073737;28;20128;-79
2021/06/13 02:21:08;;;;;;;;;;;;;;;12.58;100.00;100067.34;5074114;28;20502;-79
2021/06/13 02:23:37;;;;;;;;;;;;;;;12.54;100.00;100066.56;5074647;28;20015;-79
2021/06/13 02:26:05;;;;;;;;;;;;;;;12.23;100.00;100070.41;5056552;28;19932;-79
2021/06/13 02:28:36;;;;;;;;;;;;;;;11.87;100.00;100077.44;5040277;28;20368;-79
2021/06/13 02:31:06;;;;;;;;;;;;;;;11.63;100.00;100092.31;5056657;28;19974;-79
2021/06/13 02:33:37;;;;;;;;;;;;;;;11.64;100.00;100085.53;5090098;28;19928;-79
2021/06/13 02:36:08;;;;;;;;;;;;;;;11.87;100.00;100105.44;5056277;28;19928;-79
2021/06/13 02:38:48;;;;;;;;;;;;;;;11.99;100.00;100101.34;5051079;28;20137;-79
2021/06/13 02:41:15;;;;;;;;;;;;;;;12.09;100.00;100103.28;5074071;28;19932;-79
2021/06/13 02:43:43;;;;;;;;;;;;;;;11.95;100.00;100112.56;5089714;28;19925;-79
2021/06/13 02:46:11;;;;;;;;;;;;;;;11.70;100.00;100117.50;5065605;28;19962;-79
2021/06/13 02:48:38;;;;;;;;;;;;;;;12.01;100.00;100116.53;5074200;28;20009;-79
2021/06/13 02:51:06;;;;;;;;;;;;;;;11.92;100.00;100107.78;5089508;28;19969;-79
2021/06/13 02:53:45;;;;;;;;;;;;;;;11.90;100.00;100110.22;5057091;28;19924;-79
2021/06/13 02:56:39;;;;;;;;;;;;;;;11.97;100.00;100115.78;5054576;28;19925;-79
2021/06/13 02:59:09;;;;;;;;;;;;;;;12.21;100.00;100114.03;5073938;28;19924;-79
2021/06/13 03:01:40;;;;;;;;;;;;;;;12.30;100.00;100111.56;5060346;28;20009;-79
2021/06/13 03:04:10;;;;;;;;;;;;;;;12.35;100.00;100113.94;5089322;28;19932;-79
2021/06/13 03:06:37;;;;;;;;;;;;;;;12.33;100.00;100107.94;5054982;28;19925;-79
2021/06/13 03:09:05;;;;;;;;;;;;;;;12.35;100.00;100106.34;5055910;28;19931;-79
2021/06/13 03:11:36;;;;;;;;;;;;;;;12.29;100.00;100099.59;5055589;28;19924;-79
2021/06/13 03:14:06;;;;;;;;;;;;;;;12.44;100.00;100115.09;5055924;28;20259;-79
2021/06/13 03:16:34;;;;;;;;;;;;;;;12.51;100.00;100106.63;5068317;28;19925;-79
2021/06/13 03:19:02;;;;;;;;;;;;;;;12.62;100.00;100106.53;5032180;28;19931;-79
2021/06/13 03:21:30;;;;;;;;;;;;;;;12.63;100.00;100108.16;5032782;28;19956;-79
2021/06/13 03:24:00;;;;;;;;;;;;;;;12.78;100.00;100104.03;5033899;28;19931;-79
2021/06/13 03:26:28;;;;;;;;;;;;;;;12.67;100.00;100098.50;5065151;28;20002;-79
2021/06/13 03:28:57;;;;;;;;;;;;;;;12.54;100.00;100102.22;5033763;28;19925;-79
2021/06/13 03:31:27;;;;;;;;;;;;;;;12.50;100.00;100107.03;5033834;28;19951;-79
2021/06/13 03:33:56;;;;;;;;;;;;;;;12.34;100.00;100110.34;5064795;28;19932;-79
2021/06/13 03:36:24;;;;;;;;;;;;;;;12.33;100.00;100108.75;5048740;28;20431;-79
2021/06/13 03:38:52;;;;;;;;;;;;;;;12.17;100.00;100100.06;5033195;28;20455;-79
2021/06/13 03:41:24;;;;;;;;;;;;;;;12.23;100.00;100104.03;5032144;28;19935;-79
2021/06/13 03:43:52;;;;;;;;;;;;;;;12.23;100.00;100106.03;5033232;28;19925;-79
2021/06/13 03:46:20;;;;;;;;;;;;;;;12.31;100.00;100110.38;5033156;28;19929;-79
2021/06/13 03:48:52;;;;;;;;;;;;;;;12.34;100.00;100110.34;5032718;28;19930;-79
2021/06/13 03:51:20;;;;;;;;;;;;;;;12.38;100.00;100110.31;5033365;28;20402;-79
2021/06/13 03:53:48;;;;;;;;;;;;;;;12.21;100.00;100102.81;5033134;28;20390;-79
2021/06/13 03:56:16;;;;;;;;;;;;;;;12.28;100.00;100111.97;5065048;28;19932;-79
2021/06/13 03:58:44;;;;;;;;;;;;;;;12.17;100.00;100116.06;5033172;28;20095;-79
2021/06/13 04:01:12;;;;;;;;;;;;;;;12.20;100.00;100121.66;5031812;28;20479;-79
2021/06/13 04:03:44;;;;;;;;;;;;;;;12.11;100.00;100126.91;5031757;28;19933;-79
2021/06/13 04:06:13;;;;;;;;;;;;;;;12.04;100.00;100135.34;5032859;28;20000;-79
2021/06/13 04:08:43;;;;;;;;;;;;;;;12.00;100.00;100134.56;5032681;28;19925;-79
2021/06/13 04:11:11;;;;;;;;;;;;;;;11.90;100.00;100131.81;5031876;28;19932;-79
2021/06/13 04:13:39;;;;;;;;;;;;;;;12.19;100.00;100142.47;5033139;28;19929;-79
2021/06/13 04:16:07;;;;;;;;;;;;;;;11.89;100.00;100133.03;5059462;28;19928;-79
2021/06/13 04:18:35;;;;;;;;;;;;;;;11.65;100.00;100131.09;5057304;28;19928;-79
2021/06/13 04:21:04;;;;;;;;;;;;;;;11.87;100.00;100139.03;5058828;28;19935;-79
2021/06/13 04:23:32;;;;;;;;;;;;;;;11.92;100.00;100127.38;5077086;28;19931;-79
2021/06/13 04:26:01;;;;;;;;;;;;;;;11.71;100.00;100135.06;5076742;28;20386;-79
2021/06/13 04:28:30;;;;;;;;;;;;;;;11.83;100.00;100138.22;5076752;28;20391;-79
2021/06/13 04:30:57;;;;;;;;;;;;;;;11.98;100.00;100147.38;5058764;28;19924;-79
2021/06/13 04:33:24;;;;;;;;;;;;;;;11.89;100.00;100142.22;5058706;28;20291;-79
2021/06/13 04:35:52;;;;;;;;;;;;;;;11.89;100.00;100159.00;5058973;28;19932;-79
2021/06/13 04:38:19;;;;;;;;;;;;;;;12.06;100.00;100151.75;5076385;28;19932;-79
2021/06/13 04:41:02;;;;;;;;;;;;;;;12.05;100.00;100155.75;5076564;28;19932;-79
2021/06/13 04:43:29;;;;;;;;;;;;;;;11.87;100.00;100161.44;5076443;28;20418;-79
2021/06/13 04:45:56;;;;;;;;;;;;;;;11.91;100.00;100167.81;5058292;28;19924;-79
2021/06/13 04:48:23;;;;;;;;;;;;;;;12.05;100.00;100166.97;5076214;28;19924;-79
2021/06/13 04:50:50;;;;;;;;;;;;;;;12.01;100.00;100169.00;5075327;28;20443;-79
2021/06/13 04:53:28;;;;;;;;;;;;;;;12.10;100.00;100178.53;5048327;28;19964;-79
2021/06/13 04:55:56;;;;;;;;;;;;;;;12.03;100.00;100174.97;5074490;28;19924;-79
2021/06/13 04:58:27;;;;;;;;;;;;;;;12.22;100.00;100172.47;5075197;28;20027;-79
2021/06/13 05:00:54;;;;;;;;;;;;;;;12.35;100.00;100175.59;5091388;28;20371;-79
2021/06/13 05:03:21;;;;;;;;;;;;;;;12.36;100.00;100178.00;5076129;28;20364;-79
2021/06/13 05:05:48;;;;;;;;;;;;;;;12.54;100.00;100172.31;5057979;28;20061;-79
2021/06/13 05:08:15;;;;;;;;;;;;;;;12.54;100.00;100173.09;5058636;28;19959;-79
2021/06/13 05:10:42;;;;;;;;;;;;;;;12.71;100.00;100186.19;5058261;28;19924;-79
2021/06/13 05:13:16;;;;;;;;;;;;;;;12.97;100.00;100196.03;5075709;28;20019;-79
2021/06/13 05:15:43;;;;;;;;;;;;;;;13.31;100.00;100187.75;5075396;28;19980;-79
2021/06/13 05:18:11;;;;;;;;;;;;;;;13.30;100.00;100186.16;5075638;28;19931;-79
2021/06/13 05:20:40;;;;;;;;;;;;;;;13.16;100.00;100183.47;5075788;28;20256;-79
2021/06/13 05:23:07;;;;;;;;;;;;;;;13.13;100.00;100192.72;5057622;28;20356;-79
2021/06/13 05:25:35;;;;;;;;;;;;;;;13.32;100.00;100189.34;5075511;28;19924;-80
2021/06/13 05:28:04;;;;;;;;;;;;;;;13.54;100.00;100185.91;5075498;28;20372;-79
2021/06/13 05:30:32;;;;;;;;;;;;;;;13.56;100.00;100182.69;5074917;28;19972;-79
2021/06/13 05:32:59;;;;;;;;;;;;;;;13.64;100.00;100195.44;5075428;28;20326;-79
2021/06/13 05:35:27;;;;;;;;;;;;;;;13.78;100.00;100189.69;5075658;28;20375;-80
2021/06/13 05:37:54;;;;;;;;;;;;;;;13.85;100.00;100186.78;5057591;28;19969;-80
2021/06/13 05:40:21;;;;;;;;;;;;;;;14.41;100.00;100186.09;5075446;28;20344;-79
2021/06/13 05:42:48;;;;;;;;;;;;;;;15.12;100.00;100183.81;5075376;28;20394;-80
2021/06/13 05:45:16;;;;;;;;;;;;;;;16.22;100.00;100184.16;5075043;28;19931;-80
2021/06/13 05:47:43;;;;;;;;;;;;;;;17.47;100.00;100180.84;5090677;28;19946;-80
2021/06/13 05:50:11;;;;;;;;;;;;;;;18.84;100.00;100160.66;5075343;28;19935;-80
2021/06/13 05:52:38;;;;;;;;;;;;;;;20.27;100.00;100139.03;5090603;28;20360;-80
2021/06/13 05:55:06;;;;;;;;;;;;;;;20.96;100.00;100109.13;5075103;28;20363;-80
2021/06/13 05:57:34;;;;;;;;;;;;;;;21.20;100.00;100093.06;5074822;28;19924;-79
2021/06/13 06:00:01;;;;;;;;;;;;;;;20.42;100.00;100083.28;5074887;28;19977;-80
2021/06/13 06:02:38;;;;;;;;;;;;;;;20.04;100.00;100072.19;5074895;28;20034;-80
2021/06/13 06:05:06;;;;;;;;;;;;;;;18.99;100.00;100065.47;5074917;28;19924;-79
2021/06/13 06:07:33;;;;;;;;;;;;;;;18.67;100.00;100077.09;5074744;28;19925;-79
2021/06/13 06:10:00;;;;;;;;;;;;;;;18.52;100.00;100078.81;5075225;28;19951;-79
2021/06/13 06:12:27;;;;;;;;;;;;;;;18.87;100.00;100069.13;5074761;28;19931;-79
2021/06/13 06:14:55;;;;;;;;;;;;;;;19.21;100.00;100072.00;5074258;28;20296;-80
2021/06/13 06:17:22;;;;;;;;;;;;;;;19.24;100.00;100078.78;5074658;28;19932;-80
2021/06/13 06:19:49;;;;;;;;;;;;;;;18.83;100.00;100071.28;5056733;28;19974;-80
2021/06/13 06:22:17;;;;;;;;;;;;;;;18.44;100.00;100077.44;5056682;28;19924;-80
2021/06/13 06:24:44;;;;;;;;;;;;;;;18.32;100.00;100078.19;5074390;28;19951;-80
2021/06/13 06:27:12;;;;;;;;;;;;;;;18.06;100.00;100070.91;5056572;28;19924;-80
2021/06/13 06:29:39;;;;;;;;;;;;;;;17.88;100.00;100074.28;5074047;28;19925;-79
2021/06/13 06:32:06;;;;;;;;;;;;;;;17.92;100.00;100082.66;5074235;28;19931;-79
2021/06/13 06:34:37;;;;;;;;;;;;;;;18.44;100.00;100093.63;5074146;28;19928;-80
2021/06/13 06:37:04;;;;;;;;;;;;;;;19.36;100.00;100092.94;5074184;28;19925;-80
2021/06/13 06:39:31;;;;;;;;;;;;;;;19.75;100.00;100085.09;5056670;28;19946;-79
2021/06/13 06:41:59;;;;;;;;;;;;;;;19.38;100.00;100073.44;5055490;28;20372;-80
2021/06/13 06:44:26;;;;;;;;;;;;;;;19.21;100.00;100074.84;5056344;28;20023;-80
2021/06/13 06:46:53;;;;;;;;;;;;;;;19.44;100.00;100082.94;5074106;28;19924;-79
2021/06/13 06:49:20;;;;;;;;;;;;;;;20.38;100.00;100079.81;5074105;28;19928;-79
2021/06/13 06:51:47;;;;;;;;;;;;;;;22.34;100.00;100064.69;5073968;28;19925;-79
2021/06/13 06:54:15;;;;;;;;;;;;;;;23.66;100.00;100052.69;5056173;28;20303;-79
2021/06/13 06:56:42;;;;;;;;;;;;;;;24.22;100.00;100041.81;5089699;28;20287;-80
2021/06/13 06:59:09;;;;;;;;;;;;;;;25.47;100.00;100037.72;5089500;28;20257;-80
2021/06/13 07:01:37;;;;;;;;;;;;;;;25.84;100.00;100040.75;5056008;28;20284;-79
2021/06/13 07:04:05;;;;;;;;;;;;;;;25.94;100.00;100045.00;5056094;28;20383;-80
2021/06/13 07:06:34;;;;;;;;;;;;;;;26.43;100.00;100031.16;5073609;28;20283;-80
2021/06/13 07:09:02;;;;;;;;;;;;;;;26.74;100.00;100046.78;5073554;28;19924;-80
2021/06/13 07:11:30;;;;;;;;;;;;;;;27.25;100.00;100026.53;5088966;28;19924;-81
2021/06/13 07:13:57;;;;;;;;;;;;;;;27.24;100.00;100042.13;5073625;28;19924;-81
2021/06/13 07:16:25;;;;;;;;;;;;;;;26.75;100.00;100048.38;5073415;28;19932;-81
2021/06/13 07:18:52;;;;;;;;;;;;;;;26.69;100.00;100059.00;5055847;28;19924;-81
2021/06/13 07:21:19;;;;;;;;;;;;;;;27.00;100.00;100050.34;5073496;28;19932;-81
2021/06/13 07:23:46;;;;;;;;;;;;;;;27.11;100.00;100050.41;5072449;28;19975;-81
2021/06/13 07:26:13;;;;;;;;;;;;;;;27.33;100.00;100041.94;5089023;28;20010;-81
2021/06/13 07:28:40;;;;;;;;;;;;;;;27.32;100.00;100049.75;5073267;28;20418;-78
2021/06/13 07:31:07;;;;;;;;;;;;;;;27.65;100.00;100051.97;5055659;28;19931;-78
2021/06/13 07:33:34;;;;;;;;;;;;;;;27.19;100.00;100042.88;5055701;28;19925;-78
2021/06/13 07:36:01;;;;;;;;;;;;;;;27.16;100.00;100049.66;5073285;28;19933;-78
2021/06/13 07:38:30;;;;;;;;;;;;;;;26.58;100.00;100053.94;5055033;28;20338;-78
2021/06/13 07:40:57;;;;;;;;;;;;;;;27.13;100.00;100054.31;5072803;28;20338;-78
2021/06/13 07:43:24;;;;;;;;;;;;;;;26.34;100.00;100054.25;5088098;28;19932;-78
2021/06/13 07:45:52;;;;;;;;;;;;;;;26.01;100.00;100053.97;5072478;28;20027;-78
2021/06/13 07:48:19;;;;;;;;;;;;;;;26.55;100.00;100057.03;5073004;28;20025;-78
2021/06/13 07:50:46;;;;;;;;;;;;;;;26.28;100.00;100055.50;5073220;28;19928;-78
2021/06/13 07:53:13;;;;;;;;;;;;;;;26.11;100.00;100066.03;5076133;28;19928;-78
2021/06/13 07:55:41;;;;;;;;;;;;;;;26.88;100.00;100055.22;5061712;28;20457;-78
2021/06/13 07:58:11;;;;;;;;;;;;;;;27.59;100.00;100062.66;5061821;28;19962;-78
2021/06/13 08:00:39;;;;;;;;;;;;;;;27.77;100.00;100056.44;5079836;28;19971;-78
2021/06/13 08:03:06;;;;;;;;;;;;;;;27.62;100.00;100055.88;5079837;28;19960;-78
2021/06/13 08:05:35;;;;;;;;;;;;;;;26.90;100.00;100063.31;5079816;28;19925;-78
2021/06/13 08:08:05;;;;;;;;;;;;;;;26.53;100.00;100069.00;5078928;28;19933;-77
2021/06/13 08:10:34;;;;;;;;;;;;;;;27.53;100.00;100058.97;5079788;28;20512;-78
2021/06/13 08:13:01;;;;;;;;;;;;;;;27.98;100.00;100066.44;5079522;28;20023;-78
2021/06/13 08:15:29;;;;;;;;;;;;;;;27.76;100.00;100063.50;5079240;28;19928;-77
2021/06/13 08:17:57;;;;;;;;;;;;;;;27.21;100.00;100071.84;5078838;28;19973;-77
2021/06/13 08:20:25;;;;;;;;;;;;;;;26.60;100.00;100067.78;5062004;28;20279;-77
2021/06/13 08:22:52;;;;;;;;;;;;;;;27.33;100.00;100068.53;5079401;28;19931;-78
2021/06/13 08:25:19;;;;;;;;;;;;;;;27.76;100.00;100077.84;5079339;28;20453;-77
2021/06/13 08:27:46;;;;;;;;;;;;;;;28.05;100.00;100074.56;5078978;28;19925;-77
2021/06/13 08:30:14;;;;;;;;;;;;;;;27.70;100.00;100085.66;5079333;28;19970;-77
2021/06/13 08:32:42;;;;;;;;;;;;;;;27.96;100.00;100083.44;5078812;28;19932;-77
2021/06/13 08:35:10;;;;;;;;;;;;;;;26.92;100.00;100086.50;5079199;28;19998;-77
2021/06/13 08:37:38;;;;;;;;;;;;;;;27.14;100.00;100092.41;5079245;28;19931;-77
2021/06/13 08:40:06;;;;;;;;;;;;;;;27.52;100.00;100074.63;5061215;28;19924;-77
2021/06/13 08:42:35;;;;;;;;;;;;;;;27.01;100.00;100081.38;5079549;28;19931;-77
2021/06/13 08:45:02;;;;;;;;;;;;;;;27.08;100.00;100078.00;5079357;28;20005;-76
2021/06/13 08:47:29;;;;;;;;;;;;;;;27.18;100.00;100078.59;5078922;28;19932;-76
2021/06/13 08:49:56;;;;;;;;;;;;;;;26.58;100.00;100081.81;5079482;28;19928;-76
2021/06/13 08:52:24;;;;;;;;;;;;;;;26.16;100.00;100083.25;5044794;28;19925;-76
2021/06/13 08:54:51;;;;;;;;;;;;;;;25.22;100.00;100077.69;5078278;28;19940;-75
2021/06/13 08:57:18;;;;;;;;;;;;;;;25.07;100.00;100083.44;5061300;28;19925;-75
2021/06/13 08:59:46;;;;;;;;;;;;;;;24.78;100.00;100086.38;5094946;28;20383;-76
2021/06/13 09:02:14;;;;;;;;;;;;;;;24.87;100.00;100083.41;5079502;28;19925;-76
2021/06/13 09:04:41;;;;;;;;;;;;;;;25.08;100.00;100076.44;5070738;28;19932;-75
2021/06/13 09:07:12;;;;;;;;;;;;;;;24.62;100.00;100079.09;5068356;28;19931;-76
2021/06/13 09:09:40;;;;;;;;;;;;;;;24.18;100.00;100084.06;5077525;28;19924;-76
2021/06/13 09:12:08;;;;;;;;;;;;;;;23.56;100.00;100085.41;5092051;28;19931;-75
2021/06/13 09:14:42;;;;;;;;;;;;;;;22.99;100.00;100085.47;5075933;28;20431;-76
2021/06/13 09:17:14;;;;;;;;;;;;;;;22.82;100.00;100087.16;5075571;28;19932;-75
2021/06/13 09:20:01;;;;;;;;;;;;;;;23.17;100.00;100078.06;5058044;28;19928;-75
2021/06/13 09:22:28;;;;;;;;;;;;;;;23.19;100.00;100084.84;5072874;28;19955;-75
2021/06/13 09:25:06;;;;;;;;;;;;;;;22.94;100.00;100085.34;5075664;28;20403;-75
2021/06/13 09:27:33;;;;;;;;;;;;;;;23.01;100.00;100082.91;5075694;28;20510;-75
2021/06/13 09:30:00;;;;;;;;;;;;;;;22.55;100.00;100092.94;5075728;28;19924;-75
2021/06/13 09:32:27;;;;;;;;;;;;;;;22.44;100.00;100092.66;5075773;28;20046;-75
2021/06/13 09:35:13;;;;;;;;;;;;;;;22.63;100.00;100088.50;5075588;28;19925;-75
2021/06/13 09:38:00;;;;;;;;;;;;;;;22.66;100.00;100078.19;5075374;28;19924;-75
2021/06/13 09:40:27;;;;;;;;;;;;;;;23.17;100.00;100086.63;5072894;28;20015;-76
2021/06/13 09:42:56;;;;;;;;;;;;;;;23.17;100.00;100088.19;5074828;28;19931;-76
2021/06/13 09:45:23;;;;;;;;;;;;;;;23.08;100.00;100088.25;5074773;28;19930;-75
2021/06/13 09:48:00;;;;;;;;;;;;;;;23.21;100.00;100085.16;5074869;28;19976;-75
2021/06/13 09:50:35;;;;;;;;;;;;;;;22.85;100.00;100086.19;5074651;28;19935;-75
2021/06/13 09:53:18;;;;;;;;;;;;;;;22.62;100.00;100092.63;5057442;28;19970;-75
2021/06/13 09:55:45;;;;;;;;;;;;;;;22.57;100.00;100081.88;5074571;28;19924;-75
2021/06/13 09:58:14;;;;;;;;;;;;;;;23.07;100.00;100086.69;5074934;28;19924;-76
2021/06/13 10:00:41;;;;;;;;;;;;;;;23.04;100.00;100081.94;5056798;28;20447;-75
2021/06/13 10:03:22;;;;;;;;;;;;;;;22.88;100.00;100076.69;5074932;28;19924;-75
2021/06/13 10:05:56;;;;;;;;;;;;;;;22.59;100.00;100073.66;5074586;28;20287;-75
2021/06/13 10:08:27;;;;;;;;;;;;;;;21.97;100.00;100072.53;5056804;28;20375;-75
2021/06/13 10:10:55;;;;;;;;;;;;;;;21.62;100.00;100068.44;5074078;28;20658;-75
2021/06/13 10:13:37;;;;;;;;;;;;;;;21.25;100.00;100069.69;5074468;28;20015;-75
2021/06/13 10:16:04;;;;;;;;;;;;;;;21.03;100.00;100064.13;5073692;28;19933;-75
2021/06/13 10:18:31;;;;;;;;;;;;;;;21.06;100.00;100065.25;5073986;28;20372;-76
2021/06/13 10:21:13;;;;;;;;;;;;;;;20.84;100.00;100076.69;5074352;28;20419;-76
2021/06/13 10:23:45;;;;;;;;;;;;;;;21.03;100.00;100080.41;5089866;28;20058;-76
2021/06/13 10:26:12;;;;;;;;;;;;;;;21.09;100.00;100069.97;5056597;28;19933;-76
2021/06/13 10:28:40;;;;;;;;;;;;;;;21.09;100.00;100069.97;5056989;28;19925;-75
2021/06/13 10:31:07;;;;;;;;;;;;;;;20.98;100.00;100075.31;5074319;28;19924;-76
2021/06/13 10:33:34;;;;;;;;;;;;;;;20.97;100.00;100068.06;5068199;28;19924;-76
2021/06/13 10:36:01;;;;;;;;;;;;;;;20.99;100.00;100074.06;5074242;28;19929;-76
2021/06/13 10:38:29;;;;;;;;;;;;;;;21.02;100.00;100070.28;5056768;28;19924;-76
2021/06/13 10:40:56;;;;;;;;;;;;;;;21.03;100.00;100063.34;5056532;28;20011;-75
2021/06/13 10:43:25;;;;;;;;;;;;;;;21.25;100.00;100061.16;5077129;28;19932;-76
2021/06/13 10:45:53;;;;;;;;;;;;;;;21.42;100.00;100059.59;5085275;28;19924;-76
2021/06/13 10:48:20;;;;;;;;;;;;;;;21.13;100.00;100056.41;5074205;28;19925;-75
2021/06/13 10:50:47;;;;;;;;;;;;;;;21.03;100.00;100061.31;5056254;28;19929;-76
2021/06/13 10:53:15;;;;;;;;;;;;;;;21.35;100.00;100057.06;5063242;28;19924;-76
2021/06/13 10:55:53;;;;;;;;;;;;;;;21.40;100.00;100056.44;5073934;28;19929;-76
2021/06/13 10:59:03;;;;;;;;;;;;;;;21.50;100.00;100058.03;5056524;28;19928;-75
2021/06/13 11:01:35;;;;;;;;;;;;;;;21.65;100.00;100052.47;5031496;28;19964;-76
2021/06/13 11:04:05;;;;;;;;;;;;;;;21.91;100.00;100054.53;5031197;28;19929;-77
2021/06/13 11:06:46;;;;;;;;;;;;;;;21.95;100.00;100051.50;5031579;28;20347;-77
2021/06/13 11:09:14;;;;;;;;;;;;;;;22.27;100.00;100045.91;5014790;28;20477;-77
2021/06/13 11:11:45;;;;;;;;;;;;;;;22.33;100.00;100038.28;5031472;28;19933;-76
2021/06/13 11:14:22;;;;;;;;;;;;;;;22.45;100.00;100040.13;5014953;28;20037;-76
2021/06/13 11:16:49;;;;;;;;;;;;;;;22.45;100.00;100027.94;5035548;28;19940;-76
2021/06/13 11:19:26;;;;;;;;;;;;;;;22.35;100.00;100030.06;5032655;28;19944;-76
2021/06/13 11:22:12;;;;;;;;;;;;;;;22.40;100.00;100020.06;5036118;28;19924;-75
2021/06/13 11:24:48;;;;;;;;;;;;;;;23.14;100.00;100029.28;5047295;28;20537;-76
2021/06/13 11:27:15;;;;;;;;;;;;;;;23.31;100.00;100017.50;5031087;28;19925;-76
2021/06/13 11:29:52;;;;;;;;;;;;;;;23.59;100.00;100018.81;5032401;28;19929;-76
2021/06/13 11:32:38;;;;;;;;;;;;;;;23.27;100.00;100014.03;5030818;28;19929;-76
2021/06/13 11:35:24;;;;;;;;;;;;;;;22.55;100.00;100015.28;5044595;28;19928;-75
2021/06/13 11:38:10;;;;;;;;;;;;;;;22.43;100.00;100014.19;5073246;28;19935;-75
2021/06/13 11:40:38;;;;;;;;;;;;;;;22.81;100.00;100020.03;5062518;28;19971;-76
2021/06/13 11:43:15;;;;;;;;;;;;;;;23.26;100.00;100010.41;5073105;28;20082;-75
2021/06/13 11:45:54;;;;;;;;;;;;;;;23.61;100.00;100005.66;5088294;28;19935;-76
2021/06/13 11:48:23;;;;;;;;;;;;;;;23.41;100.00;100001.88;5072996;28;20299;-76
2021/06/13 11:51:03;;;;;;;;;;;;;;;23.71;100.00;100003.50;5055276;28;19970;-76
2021/06/13 11:53:48;;;;;;;;;;;;;;;24.17;100.00;99996.03;5073249;28;19932;-76
2021/06/13 11:56:34;;;;;;;;;;;;;;;24.27;100.00;99991.78;5060127;28;19955;-76
2021/06/13 11:59:03;;;;;;;;;;;;;;;24.09;100.00;99980.59;5072490;28;19924;-78
2021/06/13 12:01:33;;;;;;;;;;;;;;;24.70;100.00;99988.06;5072135;28;20409;-78
2021/06/13 12:04:00;;;;;;;;;;;;;;;24.94;100.00;99985.81;5054708;28;20427;-77
2021/06/13 12:06:28;;;;;;;;;;;;;;;24.36;100.00;99977.38;5072917;28;19925;-78
2021/06/13 12:08:55;;;;;;;;;;;;;;;24.17;100.00;99996.81;5073024;28;19935;-78
2021/06/13 12:11:26;;;;;;;;;;;;;;;24.47;100.00;99980.41;5072800;28;19943;-78
2021/06/13 12:13:53;;;;;;;;;;;;;;;24.57;100.00;99990.44;5072866;28;19928;-78
2021/06/13 12:16:20;;;;;;;;;;;;;;;24.42;100.00;99979.06;5072304;28;20320;-78
2021/06/13 12:18:57;;;;;;;;;;;;;;;24.68;100.00;99974.28;5072933;28;19928;-78
2021/06/13 12:21:28;;;;;;;;;;;;;;;24.70;100.00;99968.06;5072773;28;19959;-78
2021/06/13 12:24:05;;;;;;;;;;;;;;;24.13;100.00;99973.41;5072813;28;20005;-77
2021/06/13 12:29:22;;;;;;;;;;;;;;;23.63;100.00;99970.94;5072816;28;20047;-78
2021/06/13 12:31:49;;;;;;;;;;;;;;;23.56;100.00;99977.00;5071553;28;19929;-78
2021/06/13 12:34:17;;;;;;;;;;;;;;;23.62;100.00;99980.75;5072442;28;19924;-79
2021/06/13 12:36:51;;;;;;;;;;;;;;;23.62;100.00;99972.19;5071952;28;20110;-78
2021/06/13 12:39:28;;;;;;;;;;;;;;;23.52;100.00;99968.66;5070789;28;19970;-79
2021/06/13 12:42:15;;;;;;;;;;;;;;;23.37;100.00;99973.53;5076427;28;20015;-78
2021/06/13 12:44:43;;;;;;;;;;;;;;;23.41;100.00;99979.06;5077382;28;20384;-78